Time;durP1;ratioP1;P1;durP2;ratioP2;P2;SDS_P1;SDS_P2;PMS_P1;PMS_P2;Temp;Humidity;BMP_temperature;BMP_pressure;BME280_temperature;BME280_humidity;BME280_pressure;Samples;Min_cycle;Max_cycle;Signal;HPM_P1;HPM_P2
2021/07/09 00:02:19;;;;;;;0.30;0.30;;;19.90;99.90;;;;;;5025602;28;20036;-74
2021/07/09 00:04:44;;;;;;;0.20;0.20;;;19.90;99.90;;;;;;5047213;28;20040;-74
2021/07/09 00:07:10;;;;;;;1.35;0.20;;;20.00;99.90;;;;;;5039313;28;20064;-74
2021/07/09 00:09:36;;;;;;;1.63;0.52;;;19.90;99.90;;;;;;5027010;28;20041;-74
2021/07/09 00:12:02;;;;;;;0.55;0.05;;;19.90;99.90;;;;;;5045085;28;20049;-64
2021/07/09 00:14:31;;;;;;;0.43;0.10;;;19.90;99.90;;;;;;5044544;28;20049;-74
2021/07/09 00:16:57;;;;;;;4.32;0.30;;;19.80;99.90;;;;;;5037216;28;20075;-74
2021/07/09 00:19:23;;;;;;;0.30;0.28;;;19.80;99.90;;;;;;5037234;28;20041;-74
2021/07/09 00:21:49;;;;;;;3.40;0.13;;;19.70;99.90;;;;;;5032037;28;20061;-74
2021/07/09 00:24:15;;;;;;;0.28;0.10;;;19.70;99.90;;;;;;5036561;28;20071;-74
2021/07/09 00:26:41;;;;;;;1.75;0.38;;;19.60;99.90;;;;;;5047469;28;20120;-74
2021/07/09 00:29:07;;;;;;;1.65;0.30;;;19.60;99.90;;;;;;5033751;28;20044;-72
2021/07/09 00:31:34;;;;;;;0.45;0.10;;;19.50;99.90;;;;;;5027870;28;20033;-72
2021/07/09 00:34:02;;;;;;;0.93;0.32;;;19.50;99.90;;;;;;5029117;28;20037;-74
2021/07/09 00:36:28;;;;;;;0.40;0.20;;;19.60;99.90;;;;;;5039686;28;20033;-74
2021/07/09 00:38:54;;;;;;;0.25;0.17;;;19.50;99.90;;;;;;5033690;28;20033;-74
2021/07/09 00:41:20;;;;;;;0.30;0.28;;;19.50;99.90;;;;;;5038992;28;20486;-74
2021/07/09 00:43:46;;;;;;;0.63;0.30;;;19.50;99.90;;;;;;5040807;28;20044;-74
2021/07/09 00:46:12;;;;;;;1.45;0.35;;;19.50;99.90;;;;;;5045196;28;20052;-74
2021/07/09 00:48:38;;;;;;;5.35;0.25;;;19.40;99.90;;;;;;5032903;28;20402;-73
2021/07/09 00:51:10;;;;;;;0.80;0.47;;;19.40;99.90;;;;;;5050273;28;20052;-74
2021/07/09 00:53:36;;;;;;;0.32;0.32;;;19.40;99.90;;;;;;5045857;28;20069;-74
2021/07/09 00:56:03;;;;;;;1.45;0.63;;;19.40;99.90;;;;;;5041691;28;20116;-72
2021/07/09 00:58:29;;;;;;;1.23;0.28;;;19.40;99.90;;;;;;5038626;28;20033;-74
2021/07/09 01:00:56;;;;;;;2.15;0.60;;;19.20;99.90;;;;;;5033914;28;20037;-74
2021/07/09 01:03:22;;;;;;;0.80;0.32;;;19.20;99.90;;;;;;5047632;28;20033;-72
2021/07/09 01:05:48;;;;;;;0.88;0.20;;;19.20;99.90;;;;;;5026176;28;20766;-74
2021/07/09 01:08:14;;;;;;;0.10;0.10;;;19.20;99.90;;;;;;5032337;28;20376;-73
2021/07/09 01:10:43;;;;;;;0.63;0.25;;;19.10;99.90;;;;;;5031647;28;20044;-74
2021/07/09 01:13:09;;;;;;;0.55;0.13;;;19.20;99.90;;;;;;5028909;28;20037;-73
2021/07/09 01:15:35;;;;;;;1.13;0.25;;;19.10;99.90;;;;;;5040641;28;20052;-73
2021/07/09 01:18:02;;;;;;;0.40;0.10;;;19.30;99.90;;;;;;5046432;28;20112;-74
2021/07/09 01:20:28;;;;;;;0.43;0.13;;;19.30;99.90;;;;;;5043455;28;20063;-74
2021/07/09 01:22:56;;;;;;;0.10;0.10;;;19.30;99.90;;;;;;5038981;28;20368;-74
2021/07/09 01:25:24;;;;;;;0.35;0.10;;;19.20;99.90;;;;;;5028002;28;20056;-73
2021/07/09 01:27:56;;;;;;;0.30;0.20;;;19.20;99.90;;;;;;5039257;28;20043;-74
2021/07/09 01:30:23;;;;;;;0.28;0.22;;;19.20;99.90;;;;;;5041582;28;20049;-74
2021/07/09 01:32:50;;;;;;;0.63;0.30;;;19.10;99.90;;;;;;5040762;28;20049;-74
2021/07/09 01:35:16;;;;;;;1.25;0.20;;;19.20;99.90;;;;;;5048551;28;20044;-74
2021/07/09 01:37:56;;;;;;;0.45;0.20;;;19.20;99.90;;;;;;5044838;28;20048;-73
2021/07/09 01:40:23;;;;;;;2.10;0.40;;;19.10;99.90;;;;;;5047967;28;20059;-74
2021/07/09 01:42:48;;;;;;;2.47;0.45;;;19.20;99.90;;;;;;5044777;28;20111;-74
2021/07/09 01:45:14;;;;;;;0.85;0.38;;;19.20;99.90;;;;;;5051162;28;20116;-74
2021/07/09 01:47:39;;;;;;;1.10;0.20;;;19.20;99.90;;;;;;5043245;28;20033;-74
2021/07/09 01:50:06;;;;;;;0.40;0.20;;;19.10;99.90;;;;;;5045506;28;20128;-74
2021/07/09 01:52:32;;;;;;;0.28;0.20;;;19.10;99.90;;;;;;5037131;28;20099;-74
2021/07/09 01:54:59;;;;;;;0.43;0.20;;;19.10;99.90;;;;;;5049061;28;20053;-74
2021/07/09 01:57:26;;;;;;;0.52;0.13;;;19.10;99.90;;;;;;5034987;28;20041;-74
2021/07/09 01:59:51;;;;;;;0.20;0.20;;;19.20;99.90;;;;;;5035706;28;20045;-74
2021/07/09 02:02:17;;;;;;;0.98;0.20;;;19.10;99.90;;;;;;5032948;28;20100;-74
2021/07/09 02:04:54;;;;;;;0.20;0.20;;;19.20;99.90;;;;;;5042864;28;20040;-74
2021/07/09 02:07:22;;;;;;;0.22;0.10;;;19.20;99.90;;;;;;5043814;28;20037;-74
2021/07/09 02:09:50;;;;;;;4.22;0.30;;;19.20;99.90;;;;;;5036470;28;20033;-74
2021/07/09 02:12:18;;;;;;;1.00;0.22;;;19.20;99.90;;;;;;5029860;28;20053;-74
2021/07/09 02:14:44;;;;;;;1.10;0.35;;;19.10;99.90;;;;;;5031697;28;20060;-74
2021/07/09 02:17:13;;;;;;;2.47;0.20;;;19.10;99.90;;;;;;5031394;28;20033;-74
2021/07/09 02:19:40;;;;;;;1.17;0.20;;;19.10;99.90;;;;;;5026443;28;20483;-74
2021/07/09 02:22:08;;;;;;;0.30;0.20;;;19.00;99.90;;;;;;5031204;28;20036;-74
2021/07/09 02:24:34;;;;;;;0.60;0.10;;;18.90;99.90;;;;;;5032666;28;20039;-73
2021/07/09 02:27:02;;;;;;;0.70;0.30;;;19.00;99.90;;;;;;5047086;28;20047;-74
2021/07/09 02:29:29;;;;;;;1.08;0.20;;;19.00;99.90;;;;;;5028179;28;20060;-74
2021/07/09 02:31:55;;;;;;;0.55;0.22;;;19.00;99.90;;;;;;5034350;28;20143;-74
2021/07/09 02:34:21;;;;;;;4.10;0.52;;;18.90;99.90;;;;;;5042191;28;20105;-74
2021/07/09 02:36:47;;;;;;;0.20;0.10;;;19.00;99.90;;;;;;5042631;28;20034;-74
2021/07/09 02:39:12;;;;;;;0.32;0.28;;;19.00;99.90;;;;;;5030313;28;20052;-74
2021/07/09 02:41:38;;;;;;;0.85;0.13;;;18.90;99.90;;;;;;5031156;28;20081;-74
2021/07/09 02:44:05;;;;;;;0.57;0.10;;;18.90;99.90;;;;;;5025296;28;20037;-72
2021/07/09 02:46:31;;;;;;;0.25;0.25;;;18.90;99.90;;;;;;5047149;28;20037;-73
2021/07/09 02:48:56;;;;;;;0.20;0.20;;;18.90;99.90;;;;;;5043409;28;20476;-73
2021/07/09 02:51:22;;;;;;;2.80;0.20;;;18.80;99.90;;;;;;5047369;28;21199;-73
2021/07/09 02:53:48;;;;;;;0.20;0.13;;;18.90;99.90;;;;;;5023637;28;20083;-73
2021/07/09 02:56:13;;;;;;;1.55;0.17;;;18.90;99.90;;;;;;5047352;28;20030;-74
2021/07/09 02:58:39;;;;;;;0.22;0.20;;;18.90;99.90;;;;;;5047002;28;20036;-73
2021/07/09 03:01:05;;;;;;;1.27;0.35;;;18.90;99.90;;;;;;5024553;28;20048;-71
2021/07/09 03:03:30;;;;;;;1.13;0.35;;;18.90;99.90;;;;;;5040082;28;20036;-74
2021/07/09 03:05:56;;;;;;;2.83;0.20;;;18.90;99.90;;;;;;5027763;28;20045;-73
2021/07/09 03:08:21;;;;;;;1.20;0.10;;;18.90;99.90;;;;;;5035306;28;20030;-74
2021/07/09 03:10:47;;;;;;;0.75;0.20;;;18.90;99.90;;;;;;5035398;28;20048;-73
2021/07/09 03:13:13;;;;;;;0.30;0.10;;;18.80;99.90;;;;;;5026473;28;20235;-73
2021/07/09 03:15:39;;;;;;;1.13;0.22;;;18.90;99.90;;;;;;5027299;28;20128;-73
2021/07/09 03:18:05;;;;;;;0.40;0.30;;;18.80;99.90;;;;;;5040751;28;20056;-73
2021/07/09 03:20:30;;;;;;;0.25;0.10;;;18.80;99.90;;;;;;5023943;28;20037;-74
2021/07/09 03:22:56;;;;;;;1.27;0.20;;;18.80;99.90;;;;;;5046817;28;20044;-74
2021/07/09 03:25:21;;;;;;;1.90;0.25;;;18.80;99.90;;;;;;5040568;28;20039;-74
2021/07/09 03:27:47;;;;;;;0.35;0.10;;;18.80;99.90;;;;;;5027781;28;20486;-73
2021/07/09 03:30:13;;;;;;;1.00;0.50;;;18.80;99.90;;;;;;5037318;28;20514;-73
2021/07/09 03:32:39;;;;;;;0.75;0.20;;;18.80;99.90;;;;;;5043685;28;20037;-73
2021/07/09 03:35:06;;;;;;;0.38;0.20;;;18.70;99.90;;;;;;5027607;28;20047;-73
2021/07/09 03:37:32;;;;;;;0.73;0.25;;;18.80;99.90;;;;;;5037462;28;20527;-74
2021/07/09 03:39:57;;;;;;;0.57;0.20;;;18.80;99.90;;;;;;5031995;28;20116;-74
2021/07/09 03:42:23;;;;;;;1.13;0.32;;;18.70;99.90;;;;;;5027241;28;20045;-73
2021/07/09 03:44:49;;;;;;;0.20;0.20;;;18.70;99.90;;;;;;5018689;28;20053;-73
2021/07/09 03:47:15;;;;;;;0.77;0.20;;;18.70;99.90;;;;;;5031903;28;20062;-74
2021/07/09 03:49:40;;;;;;;1.40;0.32;;;18.80;99.90;;;;;;5045786;28;20499;-73
2021/07/09 03:52:06;;;;;;;1.15;0.30;;;18.80;99.90;;;;;;5036816;28;20593;-75
2021/07/09 03:54:33;;;;;;;0.08;0.08;;;18.80;99.90;;;;;;5032602;28;20029;-74
2021/07/09 03:56:59;;;;;;;1.98;0.50;;;18.70;99.90;;;;;;5043897;28;20037;-74
2021/07/09 03:59:24;;;;;;;1.70;0.20;;;18.80;99.90;;;;;;5049547;28;20033;-75
2021/07/09 04:01:50;;;;;;;0.60;0.30;;;18.70;99.90;;;;;;5040155;28;20423;-74
2021/07/09 04:04:15;;;;;;;0.47;0.30;;;18.70;99.90;;;;;;5044131;28;20275;-74
2021/07/09 04:06:41;;;;;;;2.95;0.40;;;18.80;99.90;;;;;;5035112;28;20040;-74
2021/07/09 04:09:07;;;;;;;1.35;0.30;;;18.70;99.90;;;;;;5046468;28;20067;-73
2021/07/09 04:11:32;;;;;;;1.23;0.30;;;18.80;99.90;;;;;;5037686;28;20418;-74
2021/07/09 04:13:58;;;;;;;2.20;0.35;;;18.80;99.90;;;;;;5042172;28;20109;-74
2021/07/09 04:16:23;;;;;;;1.38;0.40;;;18.80;99.90;;;;;;5035178;28;20430;-74
2021/07/09 04:18:49;;;;;;;1.17;0.30;;;18.70;99.90;;;;;;5032410;28;20098;-74
2021/07/09 04:21:15;;;;;;;1.35;0.20;;;18.80;99.90;;;;;;5028983;28;20040;-74
2021/07/09 04:23:40;;;;;;;1.13;0.50;;;18.80;99.90;;;;;;5054107;28;20053;-73
2021/07/09 04:26:06;;;;;;;1.17;0.55;;;18.80;99.90;;;;;;5033107;28;20037;-74
2021/07/09 04:28:31;;;;;;;0.60;0.47;;;18.80;99.90;;;;;;5026374;28;20044;-74
2021/07/09 04:30:57;;;;;;;3.13;0.65;;;18.90;99.90;;;;;;5032930;28;20036;-74
2021/07/09 04:33:23;;;;;;;0.95;0.20;;;18.90;99.90;;;;;;5025316;28;20050;-74
2021/07/09 04:35:50;;;;;;;1.48;0.50;;;18.80;99.90;;;;;;5037543;28;20036;-74
2021/07/09 04:38:16;;;;;;;1.17;0.43;;;18.90;99.90;;;;;;5035650;28;20490;-74
2021/07/09 04:40:42;;;;;;;2.58;0.32;;;18.80;99.90;;;;;;5041639;28;20034;-74
2021/07/09 04:43:07;;;;;;;1.77;0.40;;;18.80;99.90;;;;;;5046767;28;20082;-74
2021/07/09 04:45:33;;;;;;;1.55;0.57;;;18.80;99.90;;;;;;5039211;28;20034;-63
2021/07/09 04:47:59;;;;;;;0.85;0.45;;;18.90;99.90;;;;;;5036016;28;20047;-74
2021/07/09 04:50:25;;;;;;;0.77;0.50;;;18.90;99.90;;;;;;5049371;28;20032;-74
2021/07/09 04:52:51;;;;;;;0.60;0.40;;;18.90;99.90;;;;;;5044165;28;20102;-74
2021/07/09 04:55:16;;;;;;;2.67;0.40;;;19.00;99.90;;;;;;5043220;28;20491;-74
2021/07/09 04:57:42;;;;;;;1.33;0.50;;;19.00;99.90;;;;;;5044284;28;20152;-74
2021/07/09 05:00:08;;;;;;;1.13;0.43;;;19.00;99.90;;;;;;5045924;28;20045;-73
2021/07/09 05:02:38;;;;;;;1.55;0.50;;;19.00;99.90;;;;;;5047087;28;20041;-73
2021/07/09 05:05:06;;;;;;;2.40;0.60;;;19.00;99.90;;;;;;5041430;28;20048;-74
2021/07/09 05:07:32;;;;;;;3.00;0.73;;;19.00;99.90;;;;;;5047556;28;20231;-74
2021/07/09 05:09:57;;;;;;;1.05;0.50;;;19.00;99.90;;;;;;5040851;28;20091;-74
2021/07/09 05:12:23;;;;;;;2.17;0.82;;;19.00;99.90;;;;;;5048455;28;20053;-74
2021/07/09 05:14:48;;;;;;;1.23;0.70;;;19.10;99.90;;;;;;5047179;28;20743;-75
2021/07/09 05:17:14;;;;;;;1.50;0.45;;;19.10;99.90;;;;;;5040650;28;20049;-74
2021/07/09 05:19:40;;;;;;;1.73;0.60;;;19.20;99.90;;;;;;5033736;28;20106;-74
2021/07/09 05:22:07;;;;;;;1.63;0.40;;;19.20;99.90;;;;;;5040262;28;20035;-74
2021/07/09 05:24:33;;;;;;;0.95;0.55;;;19.30;99.90;;;;;;5029467;28;20044;-74
2021/07/09 05:26:59;;;;;;;2.10;0.40;;;19.20;99.90;;;;;;5024508;28;20038;-74
2021/07/09 05:29:24;;;;;;;2.10;0.55;;;19.30;99.90;;;;;;5030478;28;20061;-74
2021/07/09 05:31:50;;;;;;;1.27;0.60;;;19.40;99.90;;;;;;5028573;28;20192;-74
2021/07/09 05:34:16;;;;;;;0.65;0.52;;;19.30;99.90;;;;;;5048142;28;20041;-74
2021/07/09 05:36:42;;;;;;;2.58;1.02;;;19.40;99.90;;;;;;5022542;28;20044;-74
2021/07/09 05:39:08;;;;;;;2.83;1.27;;;19.40;99.90;;;;;;5030831;28;20037;-73
2021/07/09 05:41:34;;;;;;;0.95;0.38;;;19.40;99.90;;;;;;5050474;28;20052;-70
2021/07/09 05:43:59;;;;;;;1.40;0.50;;;19.50;99.90;;;;;;5048073;28;20091;-74
2021/07/09 05:46:27;;;;;;;0.88;0.70;;;19.50;99.90;;;;;;5045252;28;20029;-74
2021/07/09 05:48:52;;;;;;;1.50;0.60;;;19.60;99.90;;;;;;5042223;28;20053;-73
2021/07/09 05:51:18;;;;;;;1.77;0.70;;;19.50;99.90;;;;;;5034671;28;20048;-73
2021/07/09 05:53:43;;;;;;;1.25;0.50;;;19.50;99.90;;;;;;5047610;28;20057;-74
2021/07/09 05:56:09;;;;;;;2.90;0.50;;;19.60;99.90;;;;;;5043185;28;20041;-74
2021/07/09 05:58:34;;;;;;;2.90;0.82;;;19.60;99.90;;;;;;5047104;28;20513;-73
2021/07/09 06:01:00;;;;;;;1.38;1.02;;;19.70;99.90;;;;;;5047757;28;20041;-74
2021/07/09 06:03:26;;;;;;;1.00;0.60;;;19.70;99.90;;;;;;5043605;28;20544;-73
2021/07/09 06:05:51;;;;;;;3.70;0.85;;;19.70;99.90;;;;;;5053543;28;20075;-73
2021/07/09 06:08:17;;;;;;;1.63;0.52;;;19.90;99.90;;;;;;5040388;28;20076;-73
2021/07/09 06:10:42;;;;;;;2.47;0.60;;;19.80;99.90;;;;;;5028011;28;20117;-73
2021/07/09 06:13:09;;;;;;;2.55;0.40;;;20.00;99.90;;;;;;5029187;28;20120;-70
2021/07/09 06:15:35;;;;;;;3.03;0.80;;;20.00;99.90;;;;;;5048958;28;20047;-73
2021/07/09 06:18:00;;;;;;;2.15;0.80;;;20.00;99.90;;;;;;5039513;28;20029;-74
2021/07/09 06:20:26;;;;;;;2.95;0.50;;;20.10;99.90;;;;;;5048722;28;20438;-74
2021/07/09 06:22:52;;;;;;;3.35;1.00;;;20.00;99.90;;;;;;5031686;28;20083;-74
2021/07/09 06:25:17;;;;;;;1.60;0.80;;;20.10;99.90;;;;;;5032965;28;20083;-74
2021/07/09 06:27:43;;;;;;;2.67;0.63;;;20.10;99.90;;;;;;5023531;28;20042;-74
2021/07/09 06:30:10;;;;;;;0.98;0.57;;;20.20;99.90;;;;;;5031821;28;20124;-72
2021/07/09 06:32:37;;;;;;;1.10;0.60;;;20.10;99.90;;;;;;5022950;28;20128;-72
2021/07/09 06:35:05;;;;;;;3.15;0.70;;;20.20;99.90;;;;;;5043993;28;20074;-73
2021/07/09 06:37:30;;;;;;;1.35;0.43;;;20.10;99.90;;;;;;5030316;28;20041;-72
2021/07/09 06:39:56;;;;;;;5.05;0.63;;;20.20;99.90;;;;;;5025258;28;20474;-73
2021/07/09 06:42:22;;;;;;;2.92;0.80;;;20.30;99.90;;;;;;5045090;28;20120;-72
2021/07/09 06:44:47;;;;;;;1.45;0.68;;;20.40;99.90;;;;;;5044161;28;20041;-73
2021/07/09 06:47:13;;;;;;;1.15;0.30;;;20.40;99.90;;;;;;5046361;28;20076;-73
2021/07/09 06:49:38;;;;;;;0.43;0.43;;;20.40;99.90;;;;;;5026214;28;20038;-72
2021/07/09 06:52:04;;;;;;;1.45;0.60;;;20.50;99.90;;;;;;5039860;28;20079;-71
2021/07/09 06:54:30;;;;;;;1.75;0.50;;;20.50;99.90;;;;;;5021575;28;20048;-73
2021/07/09 06:56:55;;;;;;;4.65;0.57;;;20.60;99.90;;;;;;5042601;28;20052;-73
2021/07/09 06:59:21;;;;;;;2.50;0.73;;;20.70;99.90;;;;;;5025496;28;20083;-73
2021/07/09 07:01:47;;;;;;;4.53;0.63;;;20.70;99.90;;;;;;5031703;28;20044;-73
2021/07/09 07:04:14;;;;;;;0.82;0.52;;;20.80;99.90;;;;;;5007896;28;20038;-73
2021/07/09 07:06:40;;;;;;;0.98;0.52;;;20.80;99.90;;;;;;5038852;28;20094;-73
2021/07/09 07:09:06;;;;;;;4.85;0.70;;;20.90;99.90;;;;;;5024544;28;20033;-72
2021/07/09 07:11:32;;;;;;;2.10;0.50;;;21.00;99.90;;;;;;5040818;28;20044;-73
2021/07/09 07:13:58;;;;;;;2.33;0.43;;;21.10;99.30;;;;;;5032450;28;20037;-74
2021/07/09 07:16:23;;;;;;;0.95;0.40;;;21.10;99.90;;;;;;5014804;28;20666;-74
2021/07/09 07:18:49;;;;;;;1.95;0.40;;;21.20;99.90;;;;;;5043629;28;20033;-73
2021/07/09 07:21:14;;;;;;;3.28;0.40;;;21.20;99.90;;;;;;5021172;28;20048;-72
2021/07/09 07:23:40;;;;;;;0.95;0.40;;;21.30;99.90;;;;;;5045996;28;20038;-73
2021/07/09 07:26:06;;;;;;;3.83;0.73;;;21.30;99.90;;;;;;5043812;28;20029;-72
2021/07/09 07:28:31;;;;;;;1.75;0.30;;;21.30;99.90;;;;;;5044207;28;20048;-73
2021/07/09 07:30:57;;;;;;;4.32;1.98;;;21.50;99.90;;;;;;5028362;28;20033;-73
2021/07/09 07:33:23;;;;;;;1.38;0.70;;;21.50;99.90;;;;;;5045194;28;20063;-73
2021/07/09 07:35:48;;;;;;;1.23;0.60;;;21.60;99.90;;;;;;5024210;28;20076;-73
2021/07/09 07:38:14;;;;;;;4.18;0.98;;;21.60;99.90;;;;;;5032301;28;20107;-73
2021/07/09 07:40:40;;;;;;;1.13;0.40;;;21.80;99.00;;;;;;5029529;28;20037;-73
2021/07/09 07:43:06;;;;;;;0.98;0.50;;;21.80;97.40;;;;;;5042660;28;20040;-73
2021/07/09 07:45:33;;;;;;;2.13;0.75;;;21.80;95.60;;;;;;5027172;28;20056;-73
2021/07/09 07:47:58;;;;;;;2.72;0.60;;;21.90;99.10;;;;;;5022733;28;20045;-74
2021/07/09 07:50:26;;;;;;;6.75;0.60;;;21.90;98.50;;;;;;5038265;28;20093;-73
2021/07/09 07:52:51;;;;;;;1.95;0.50;;;21.90;94.60;;;;;;5045625;28;20055;-73
2021/07/09 07:55:17;;;;;;;0.75;0.30;;;22.00;97.30;;;;;;5036483;28;20124;-74
2021/07/09 07:57:44;;;;;;;2.30;0.50;;;22.10;96.20;;;;;;5019142;28;20088;-74
2021/07/09 08:00:11;;;;;;;1.02;0.35;;;22.20;96.90;;;;;;5044829;28;20112;-74
2021/07/09 08:02:37;;;;;;;2.58;0.50;;;22.20;95.70;;;;;;5033744;28;20639;-73
2021/07/09 08:05:03;;;;;;;1.27;1.05;;;22.30;95.90;;;;;;5043495;28;20030;-74
2021/07/09 08:07:29;;;;;;;1.92;0.30;;;22.30;93.60;;;;;;5041516;28;20033;-74
2021/07/09 08:09:54;;;;;;;0.90;0.40;;;22.40;95.30;;;;;;5047592;28;20048;-74
2021/07/09 08:12:20;;;;;;;1.63;0.45;;;22.50;95.50;;;;;;5035910;28;20041;-74
2021/07/09 08:14:46;;;;;;;0.98;0.55;;;22.60;95.80;;;;;;5048696;28;20472;-74
2021/07/09 08:17:11;;;;;;;1.42;0.25;;;22.60;96.30;;;;;;5046829;28;20040;-74
2021/07/09 08:19:37;;;;;;;1.23;0.63;;;22.70;96.00;;;;;;5048324;28;20044;-74
2021/07/09 08:22:03;;;;;;;1.42;0.60;;;22.70;94.30;;;;;;5045147;28;20098;-74
2021/07/09 08:24:29;;;;;;;0.77;0.40;;;22.80;96.60;;;;;;5040588;28;20123;-75
2021/07/09 08:26:54;;;;;;;1.05;0.63;;;22.90;96.30;;;;;;5028229;28;20550;-74
2021/07/09 08:29:20;;;;;;;1.27;0.50;;;23.00;96.60;;;;;;5032690;28;20038;-75
2021/07/09 08:31:46;;;;;;;1.35;0.32;;;22.90;93.00;;;;;;5039633;28;20498;-74
2021/07/09 08:34:11;;;;;;;1.25;0.40;;;23.00;94.10;;;;;;5033915;28;20123;-74
2021/07/09 08:36:37;;;;;;;0.22;0.22;;;23.00;94.50;;;;;;5037512;28;20033;-74
2021/07/09 08:39:04;;;;;;;0.40;0.40;;;23.00;95.40;;;;;;5047509;28;20532;-74
2021/07/09 08:41:29;;;;;;;0.65;0.35;;;23.10;94.30;;;;;;5035517;28;20037;-74
2021/07/09 08:43:55;;;;;;;1.77;0.40;;;23.20;95.40;;;;;;5029604;28;20083;-74
2021/07/09 08:46:22;;;;;;;0.30;0.30;;;23.30;97.50;;;;;;5030338;28;20056;-75
2021/07/09 08:48:48;;;;;;;1.45;0.30;;;23.50;97.60;;;;;;5029556;28;20037;-74
2021/07/09 08:51:15;;;;;;;0.50;0.38;;;23.30;92.10;;;;;;5050303;28;20037;-74
2021/07/09 08:53:40;;;;;;;1.10;0.20;;;23.30;92.40;;;;;;5040895;28;20060;-74
2021/07/09 08:56:06;;;;;;;2.17;0.30;;;23.40;91.90;;;;;;5049628;28;20048;-74
2021/07/09 08:58:32;;;;;;;0.50;0.30;;;23.50;93.70;;;;;;5041718;28;20106;-74
2021/07/09 09:00:58;;;;;;;1.40;0.25;;;23.60;92.30;;;;;;5039547;28;20029;-72
2021/07/09 09:03:26;;;;;;;1.50;0.70;;;23.70;91.30;;;;;;5039034;28;20099;-74
2021/07/09 09:06:02;;;;;;;0.50;0.25;;;23.80;90.10;;;;;;5034083;28;20030;-74
2021/07/09 09:08:34;;;;;;;2.05;0.50;;;23.80;92.90;;;;;;5031048;28;20375;-74
2021/07/09 09:11:00;;;;;;;1.85;0.32;;;23.80;88.90;;;;;;5046650;28;20387;-74
2021/07/09 09:13:27;;;;;;;0.68;0.47;;;23.90;90.20;;;;;;5039779;28;20053;-72
2021/07/09 09:16:14;;;;;;;0.77;0.32;;;24.00;91.70;;;;;;5039619;28;20119;-73
2021/07/09 09:18:56;;;;;;;0.32;0.32;;;23.90;86.70;;;;;;5009615;28;20048;-73
2021/07/09 09:21:24;;;;;;;1.48;0.55;;;24.00;88.90;;;;;;5036766;28;20057;-73
2021/07/09 09:23:52;;;;;;;0.30;0.30;;;24.00;90.80;;;;;;5037808;28;20388;-72
2021/07/09 09:26:47;;;;;;;2.40;0.50;;;24.10;87.70;;;;;;5023806;28;20049;-73
2021/07/09 09:29:15;;;;;;;4.65;0.90;;;24.20;83.30;;;;;;5011855;28;20487;-74
2021/07/09 09:31:41;;;;;;;0.52;0.30;;;24.30;84.20;;;;;;5042384;28;20112;-74
2021/07/09 09:34:07;;;;;;;1.38;0.40;;;24.30;83.80;;;;;;5052220;28;20041;-72
2021/07/09 09:36:34;;;;;;;1.55;0.50;;;24.50;90.20;;;;;;5043453;28;20162;-72
2021/07/09 09:39:02;;;;;;;1.48;0.45;;;24.60;88.50;;;;;;5040843;28;20041;-73
2021/07/09 09:41:29;;;;;;;1.52;0.40;;;24.60;90.50;;;;;;5030014;28;20043;-74
2021/07/09 09:44:13;;;;;;;3.55;0.73;;;24.60;89.00;;;;;;5028053;28;20107;-74
2021/07/09 09:46:39;;;;;;;2.25;0.60;;;24.80;82.50;;;;;;5015436;28;20038;-74
2021/07/09 09:49:05;;;;;;;0.90;0.55;;;25.00;89.30;;;;;;5031582;28;20429;-72
2021/07/09 09:51:39;;;;;;;0.45;0.30;;;25.00;89.10;;;;;;5030511;28;20045;-73
2021/07/09 09:54:07;;;;;;;1.02;0.60;;;25.00;84.70;;;;;;5043287;28;20080;-72
2021/07/09 09:56:44;;;;;;;1.35;0.40;;;25.10;83.60;;;;;;5043633;28;20033;-74
2021/07/09 09:59:24;;;;;;;3.42;0.85;;;25.10;83.20;;;;;;5006297;28;20037;-73
2021/07/09 10:01:55;;;;;;;2.55;0.77;;;25.20;84.80;;;;;;5038580;28;20116;-72
2021/07/09 10:04:22;;;;;;;1.55;0.50;;;25.30;82.90;;;;;;5042463;28;20064;-73
2021/07/09 10:06:48;;;;;;;0.93;0.70;;;25.30;88.20;;;;;;5034427;28;20029;-74
2021/07/09 10:09:15;;;;;;;2.47;0.77;;;25.40;86.20;;;;;;5026867;28;20059;-74
2021/07/09 10:11:42;;;;;;;3.13;0.57;;;25.60;86.20;;;;;;5025974;28;20132;-72
2021/07/09 10:14:16;;;;;;;0.95;0.40;;;25.70;80.80;;;;;;5043150;28;20556;-73
2021/07/09 10:16:46;;;;;;;1.48;0.40;;;25.80;82.90;;;;;;5038402;28;20579;-73
2021/07/09 10:19:20;;;;;;;2.75;0.43;;;25.90;81.50;;;;;;5047953;28;20041;-72
2021/07/09 10:21:46;;;;;;;0.57;0.50;;;25.90;81.70;;;;;;5042847;28;20055;-73
2021/07/09 10:24:15;;;;;;;0.35;0.20;;;25.90;83.60;;;;;;5040418;28;20042;-73
2021/07/09 10:26:47;;;;;;;0.77;0.40;;;26.10;83.80;;;;;;5025405;28;20041;-72
2021/07/09 10:29:21;;;;;;;2.33;0.60;;;26.20;77.30;;;;;;5035708;28;20043;-72
2021/07/09 10:31:49;;;;;;;1.75;0.40;;;26.30;74.00;;;;;;5040112;28;20041;-72
2021/07/09 10:35:03;;;;;;;2.20;0.35;;;26.30;79.40;;;;;;5047625;28;20398;-72
2021/07/09 10:37:29;;;;;;;2.03;0.60;;;26.40;74.00;;;;;;4980369;28;20414;-72
2021/07/09 10:40:04;;;;;;;0.50;0.40;;;26.40;82.00;;;;;;5045701;28;20044;-72
2021/07/09 10:42:40;;;;;;;0.40;0.40;;;26.60;74.40;;;;;;5045960;28;20037;-72
2021/07/09 10:45:10;;;;;;;0.32;0.32;;;26.70;74.70;;;;;;5041672;28;20033;-72
2021/07/09 10:47:40;;;;;;;0.40;0.40;;;26.80;75.00;;;;;;5033255;28;20037;-72
2021/07/09 10:50:08;;;;;;;0.80;0.47;;;26.90;71.00;;;;;;5039616;28;20053;-72
2021/07/09 10:52:52;;;;;;;0.30;0.30;;;27.00;74.30;;;;;;5029400;28;20077;-73
2021/07/09 10:55:27;;;;;;;2.35;0.50;;;27.10;65.80;;;;;;4999835;28;20231;-73
2021/07/09 10:58:07;;;;;;;1.10;0.50;;;27.30;69.00;;;;;;5031332;28;20390;-73
2021/07/09 11:00:57;;;;;;;1.17;0.52;;;27.40;66.90;;;;;;5047886;28;20025;-73
2021/07/09 11:03:28;;;;;;;0.52;0.52;;;28.10;65.30;;;;;;4988196;28;20045;-73
2021/07/09 11:05:56;;;;;;;0.68;0.40;;;29.30;64.20;;;;;;5030618;28;20041;-73
2021/07/09 11:08:33;;;;;;;0.80;0.50;;;31.00;62.70;;;;;;5036740;28;20551;-71
2021/07/09 11:11:01;;;;;;;2.50;0.70;;;32.90;53.70;;;;;;5039580;28;20052;-71
2021/07/09 11:13:44;;;;;;;1.80;0.88;;;33.30;54.40;;;;;;5022051;28;20414;-71
2021/07/09 11:16:32;;;;;;;1.75;1.17;;;34.80;69.90;;;;;;5018108;28;20500;-71
2021/07/09 11:19:04;;;;;;;1.42;1.33;;;34.40;46.10;;;;;;5014013;28;20037;-71
2021/07/09 11:21:33;;;;;;;0.60;0.60;;;33.80;49.80;;;;;;5041736;28;20033;-72
2021/07/09 11:24:02;;;;;;;1.02;0.50;;;32.30;50.50;;;;;;5036334;28;20499;-72
2021/07/09 11:26:40;;;;;;;1.55;0.70;;;31.80;52.90;;;;;;5033605;28;20037;-72
2021/07/09 11:29:21;;;;;;;1.05;0.70;;;31.10;52.70;;;;;;5033440;28;20033;-71
2021/07/09 11:31:47;;;;;;;2.25;0.65;;;30.70;53.70;;;;;;5037585;28;20029;-74
2021/07/09 11:34:14;;;;;;;0.65;0.65;;;30.30;58.90;;;;;;5040816;28;20466;-72
2021/07/09 11:36:40;;;;;;;1.15;0.70;;;30.10;57.60;;;;;;5032875;28;20042;-72
2021/07/09 11:39:15;;;;;;;0.95;0.70;;;30.60;59.90;;;;;;5039072;28;20061;-71
2021/07/09 11:42:04;;;;;;;0.70;0.70;;;30.00;57.40;;;;;;5048183;28;20060;-73
2021/07/09 11:44:49;;;;;;;1.70;0.65;;;29.90;55.00;;;;;;5039386;28;20086;-72
2021/07/09 11:47:18;;;;;;;3.47;1.00;;;30.20;53.20;;;;;;4984863;28;20037;-65
2021/07/09 11:49:58;;;;;;;2.92;0.60;;;30.40;55.40;;;;;;5034892;28;20086;-64
2021/07/09 11:52:31;;;;;;;0.73;0.60;;;30.30;54.20;;;;;;5032726;28;20172;-66
2021/07/09 11:55:18;;;;;;;1.45;0.80;;;30.90;54.50;;;;;;5021889;28;20038;-65
2021/07/09 11:57:45;;;;;;;1.10;1.10;;;31.10;53.30;;;;;;5015860;28;20115;-68
2021/07/09 12:00:13;;;;;;;0.60;0.60;;;30.90;54.90;;;;;;5043043;28;20401;-70
2021/07/09 12:02:39;;;;;;;0.73;0.73;;;31.10;53.10;;;;;;5028189;28;20033;-68
2021/07/09 12:05:14;;;;;;;2.42;0.70;;;31.30;52.60;;;;;;5031153;28;20407;-67
2021/07/09 12:07:41;;;;;;;0.93;0.80;;;32.20;52.50;;;;;;5039150;28;20041;-69
2021/07/09 12:10:10;;;;;;;0.80;0.80;;;33.10;51.60;;;;;;5028957;28;20292;-67
2021/07/09 12:12:42;;;;;;;1.85;0.73;;;34.70;56.40;;;;;;5021124;28;20140;-69
2021/07/09 12:15:10;;;;;;;4.78;1.65;;;34.40;47.30;;;;;;5041601;28;20606;-69
2021/07/09 12:17:54;;;;;;;0.70;0.70;;;35.00;49.30;;;;;;5021532;28;20032;-69
2021/07/09 12:20:24;;;;;;;;;;;35.20;44.20;;;;;;5032073;28;20052;-66
2021/07/09 12:22:59;;;;;;;0.70;0.70;;;35.10;43.90;;;;;;5018658;28;19913;-64
2021/07/09 12:25:33;;;;;;;0.75;0.75;;;34.50;42.10;;;;;;5024780;28;20045;-64
2021/07/09 12:28:03;;;;;;;1.33;1.08;;;33.90;46.40;;;;;;5032064;28;20406;-62
2021/07/09 12:30:34;;;;;;;2.58;0.80;;;33.60;46.30;;;;;;5052135;28;20141;-66
2021/07/09 12:33:03;;;;;;;1.15;0.88;;;33.10;47.20;;;;;;5039107;28;20053;-69
2021/07/09 12:35:31;;;;;;;1.02;0.70;;;33.60;49.60;;;;;;5026502;28;20037;-69
2021/07/09 12:38:27;;;;;;;1.88;0.73;;;33.20;47.30;;;;;;5023364;28;20033;-68
2021/07/09 12:40:54;;;;;;;1.05;1.05;;;33.40;46.30;;;;;;5004468;28;20049;-69
2021/07/09 12:43:24;;;;;;;2.80;1.10;;;33.60;52.80;;;;;;5046006;28;20041;-69
2021/07/09 12:46:28;;;;;;;2.55;1.00;;;33.90;48.40;;;;;;5045199;28;20037;-69
2021/07/09 12:48:55;;;;;;;0.90;0.90;;;34.20;43.90;;;;;;4988170;28;20035;-69
2021/07/09 12:51:32;;;;;;;1.00;1.00;;;35.00;50.90;;;;;;5034029;28;20091;-69
2021/07/09 12:54:06;;;;;;;2.15;1.00;;;35.80;41.50;;;;;;5042231;28;20040;-69